Time;durP1;ratioP1;P1;durP2;ratioP2;P2;SDS_P1;SDS_P2;PMS_P1;PMS_P2;Temp;Humidity;BMP_temperature;BMP_pressure;BME280_temperature;BME280_humidity;BME280_pressure;Samples;Min_cycle;Max_cycle;Signal;HPM_P1;HPM_P2
2023/03/10 00:00:18;;;;;;;22.02;3.15;;;;;;;9.17;100.00;98296.63;4971848;28;20077;-53
2023/03/10 00:02:48;;;;;;;13.40;3.58;;;;;;;9.14;100.00;98304.16;4976490;28;20082;-51
2023/03/10 00:05:16;;;;;;;16.63;3.60;;;;;;;9.06;100.00;98304.34;4969032;28;20046;-51
2023/03/10 00:07:43;;;;;;;17.40;4.03;;;;;;;9.09;100.00;98285.41;4976554;28;20074;-52
2023/03/10 00:10:11;;;;;;;12.20;3.60;;;;;;;9.11;100.00;98273.59;4974457;28;20047;-52
2023/03/10 00:12:38;;;;;;;12.55;3.80;;;;;;;9.13;100.00;98284.00;4975646;28;20042;-52
2023/03/10 00:15:07;;;;;;;16.70;4.25;;;;;;;9.13;100.00;98278.69;4975103;28;20138;-52
2023/03/10 00:17:35;;;;;;;16.00;4.43;;;;;;;9.05;100.00;98285.00;4974538;28;20090;-49
2023/03/10 00:20:06;;;;;;;13.77;4.25;;;;;;;9.05;100.00;98274.44;4972800;28;20106;-50
2023/03/10 00:22:34;;;;;;;17.60;3.78;;;;;;;9.09;100.00;98274.84;4973167;28;20493;-51
2023/03/10 00:25:00;;;;;;;11.27;3.33;;;;;;;9.02;100.00;98273.03;4976154;28;20055;-49
2023/03/10 00:27:27;;;;;;;15.02;4.10;;;;;;;9.09;100.00;98261.63;4971706;28;20258;-49
2023/03/10 00:29:54;;;;;;;9.57;2.53;;;;;;;9.13;100.00;98265.47;4976266;28;20042;-51
2023/03/10 00:32:21;;;;;;;11.98;2.75;;;;;;;9.03;100.00;98277.28;4971723;28;20220;-53
2023/03/10 00:34:48;;;;;;;8.55;2.30;;;;;;;9.07;100.00;98275.03;4973191;28;20053;-51
2023/03/10 00:37:15;;;;;;;8.43;2.38;;;;;;;9.16;100.00;98283.59;4970689;28;20463;-49
2023/03/10 00:39:42;;;;;;;7.22;2.00;;;;;;;9.25;100.00;98297.41;4971682;28;20046;-51
2023/03/10 00:42:08;;;;;;;6.53;2.08;;;;;;;9.30;100.00;98293.13;4976055;28;20043;-52
2023/03/10 00:44:35;;;;;;;13.05;2.53;;;;;;;9.30;100.00;98308.22;4971472;28;20225;-52
2023/03/10 00:47:02;;;;;;;7.90;2.15;;;;;;;9.20;100.00;98317.38;4975832;28;20070;-49
2023/03/10 00:49:29;;;;;;;9.25;2.20;;;;;;;9.22;100.00;98309.22;4971375;28;20053;-52
2023/03/10 00:51:56;;;;;;;7.28;2.20;;;;;;;9.23;100.00;98321.44;4975706;28;20042;-50
2023/03/10 00:54:22;;;;;;;7.68;2.00;;;;;;;9.29;100.00;98323.25;4970983;28;20667;-52
2023/03/10 00:56:50;;;;;;;6.32;1.88;;;;;;;9.40;100.00;98314.72;4972363;28;20046;-52
2023/03/10 00:59:16;;;;;;;5.40;1.48;;;;;;;9.42;100.00;98317.13;4975739;28;20051;-52
2023/03/10 01:01:43;;;;;;;7.95;1.83;;;;;;;9.46;100.00;98315.72;4970844;28;20050;-52
2023/03/10 01:04:13;;;;;;;6.00;1.67;;;;;;;9.44;100.00;98309.00;4975486;28;20185;-50
2023/03/10 01:06:43;;;;;;;5.57;1.55;;;;;;;9.47;100.00;98306.75;4970772;28;20050;-51
2023/03/10 01:09:09;;;;;;;3.95;1.40;;;;;;;9.45;100.00;98313.28;4974904;28;20511;-51
2023/03/10 01:11:36;;;;;;;5.57;1.55;;;;;;;9.51;100.00;98317.72;4967838;28;20050;-49
2023/03/10 01:14:05;;;;;;;6.22;1.80;;;;;;;9.41;100.00;98304.94;4975349;28;20083;-52
2023/03/10 01:16:32;;;;;;;5.88;1.88;;;;;;;9.39;100.00;98306.97;4970956;28;20643;-51
2023/03/10 01:19:00;;;;;;;5.53;1.60;;;;;;;9.44;100.00;98304.53;4975044;28;20061;-52
2023/03/10 01:21:30;;;;;;;9.20;1.80;;;;;;;9.39;100.00;98312.28;4970952;28;20241;-52
2023/03/10 01:23:58;;;;;;;5.95;1.80;;;;;;;9.35;100.00;98305.75;4975588;28;20134;-51
2023/03/10 01:26:25;;;;;;;7.20;2.10;;;;;;;9.28;100.00;98305.75;4970492;28;20114;-49
2023/03/10 01:28:52;;;;;;;8.27;2.00;;;;;;;9.32;100.00;98306.16;4971768;28;20049;-52
2023/03/10 01:31:18;;;;;;;9.23;2.47;;;;;;;9.34;100.00;98296.19;4974835;28;20047;-52
2023/03/10 01:33:45;;;;;;;6.82;1.80;;;;;;;9.31;100.00;98307.19;4970634;28;20481;-51
2023/03/10 01:36:16;;;;;;;9.65;2.30;;;;;;;9.37;100.00;98304.53;4975123;28;20047;-52
2023/03/10 01:38:46;;;;;;;4.55;1.75;;;;;;;9.34;100.00;98296.19;4970109;28;20045;-51
2023/03/10 01:41:13;;;;;;;7.75;2.00;;;;;;;9.41;100.00;98289.88;4974891;28;20081;-52
2023/03/10 01:43:44;;;;;;;6.85;1.75;;;;;;;9.31;100.00;98292.09;4967384;28;20050;-52
2023/03/10 01:46:39;;;;;;;6.18;1.70;;;;;;;9.18;100.00;98284.19;4974905;28;20500;-53
2023/03/10 01:49:24;;;;;;;5.30;1.73;;;;;;;9.25;100.00;98300.06;4970059;28;20062;-51
2023/03/10 01:51:58;;;;;;;5.90;1.90;;;;;;;9.16;100.00;98294.97;4974834;28;20515;-49
2023/03/10 01:54:45;;;;;;;6.25;1.63;;;;;;;9.12;100.00;98285.81;4970103;28;20127;-49
2023/03/10 01:57:15;;;;;;;6.35;2.03;;;;;;;9.09;100.00;98282.78;4965684;28;20047;-51
2023/03/10 01:59:42;;;;;;;5.50;1.85;;;;;;;9.11;100.00;98283.38;4966721;28;20039;-49
2023/03/10 02:02:09;;;;;;;6.55;1.63;;;;;;;8.99;100.00;98288.50;4974082;28;20105;-49
2023/03/10 02:04:43;;;;;;;6.13;1.92;;;;;;;8.94;100.00;98277.69;4970236;28;20054;-52
2023/03/10 02:07:11;;;;;;;5.90;1.77;;;;;;;8.96;100.00;98281.75;4974566;28;20057;-49
2023/03/10 02:09:43;;;;;;;7.60;1.80;;;;;;;9.02;100.00;98291.53;4969893;28;20043;-51
2023/03/10 02:12:11;;;;;;;6.13;1.67;;;;;;;9.01;100.00;98287.25;4974720;28;20051;-52
2023/03/10 02:14:38;;;;;;;4.28;1.60;;;;;;;9.00;100.00;98295.38;4970105;28;20050;-52
2023/03/10 02:17:09;;;;;;;7.55;1.83;;;;;;;8.88;100.00;98297.00;4971162;28;20057;-49
2023/03/10 02:19:52;;;;;;;6.95;1.85;;;;;;;8.92;100.00;98291.13;4974043;28;20047;-52
2023/03/10 02:22:20;;;;;;;5.03;1.50;;;;;;;8.89;100.00;98296.81;4969607;28;20055;-51
2023/03/10 02:25:20;;;;;;;7.70;1.90;;;;;;;8.82;100.00;98294.19;4974402;28;20051;-49
2023/03/10 02:27:47;;;;;;;5.95;1.67;;;;;;;8.90;100.00;98290.50;4969673;28;20046;-52
2023/03/10 02:30:21;;;;;;;5.60;1.98;;;;;;;8.79;100.00;98291.94;4989302;28;20051;-52
2023/03/10 02:32:54;;;;;;;7.30;1.60;;;;;;;8.85;100.00;98285.00;4966463;28;20057;-52
2023/03/10 02:35:22;;;;;;;8.23;1.60;;;;;;;8.76;100.00;98273.81;4971672;28;20050;-53
2023/03/10 02:37:55;;;;;;;5.45;1.80;;;;;;;8.78;100.00;98270.97;4968522;28;20050;-53
2023/03/10 02:40:31;;;;;;;6.07;1.48;;;;;;;8.87;100.00;98271.59;4973491;28;20101;-50
2023/03/10 02:43:01;;;;;;;8.95;1.70;;;;;;;8.91;100.00;98267.53;4969856;28;20133;-52
2023/03/10 02:45:31;;;;;;;3.95;1.60;;;;;;;8.88;100.00;98267.91;4974031;28;20133;-52
2023/03/10 02:47:57;;;;;;;7.85;1.60;;;;;;;8.89;100.00;98272.19;4969662;28;20077;-52
2023/03/10 02:50:27;;;;;;;6.10;1.38;;;;;;;8.82;100.00;98275.66;4970743;28;20469;-50
2023/03/10 02:53:00;;;;;;;5.43;1.42;;;;;;;8.84;100.00;98267.50;4974277;28;20089;-52
2023/03/10 02:55:27;;;;;;;6.03;1.25;;;;;;;8.84;100.00;98268.34;4969107;28;20042;-52
2023/03/10 02:57:55;;;;;;;7.28;1.45;;;;;;;8.95;100.00;98268.72;4974055;28;20066;-49
2023/03/10 03:00:21;;;;;;;7.85;1.55;;;;;;;8.95;100.00;98266.94;4969158;28;20133;-50
2023/03/10 03:02:48;;;;;;;8.80;1.50;;;;;;;8.84;100.00;98262.22;4973690;28;20135;-52
2023/03/10 03:05:15;;;;;;;5.15;1.55;;;;;;;8.89;100.00;98269.56;4969499;28;20508;-52
2023/03/10 03:07:42;;;;;;;3.42;1.25;;;;;;;8.93;100.00;98260.19;4970785;28;20105;-50
2023/03/10 03:10:09;;;;;;;5.07;1.60;;;;;;;8.84;100.00;98254.28;4973798;28;20050;-52
2023/03/10 03:12:36;;;;;;;4.10;1.30;;;;;;;8.84;100.00;98252.47;4969395;28;20174;-53
2023/03/10 03:15:04;;;;;;;4.03;1.17;;;;;;;8.85;100.00;98250.66;4973928;28;20087;-51
2023/03/10 03:17:30;;;;;;;6.88;1.60;;;;;;;8.80;100.00;98250.44;4969274;28;20106;-52
2023/03/10 03:19:57;;;;;;;3.10;1.40;;;;;;;8.74;100.00;98256.53;4973967;28;20105;-52
2023/03/10 03:22:24;;;;;;;4.60;1.50;;;;;;;8.69;100.00;98259.78;4969413;28;20137;-52
2023/03/10 03:24:50;;;;;;;8.40;1.80;;;;;;;8.64;100.00;98262.22;4970185;28;20053;-52
2023/03/10 03:27:17;;;;;;;7.75;2.00;;;;;;;8.62;100.00;98266.88;4973740;28;20046;-52
2023/03/10 03:29:44;;;;;;;10.82;1.98;;;;;;;8.68;100.00;98265.25;4969403;28;20042;-52
2023/03/10 03:32:11;;;;;;;5.38;1.40;;;;;;;8.60;100.00;98261.84;4973695;28;20054;-50
2023/03/10 03:34:38;;;;;;;5.03;2.10;;;;;;;8.58;100.00;98253.25;4972610;28;20046;-53
2023/03/10 03:37:06;;;;;;;5.65;1.70;;;;;;;8.63;100.00;98255.31;4977103;28;20055;-50
2023/03/10 03:39:36;;;;;;;8.98;1.70;;;;;;;8.59;100.00;98254.91;4969632;28;20047;-53
2023/03/10 03:42:06;;;;;;;4.57;1.52;;;;;;;8.61;100.00;98252.06;4977255;28;20051;-50
2023/03/10 03:44:42;;;;;;;5.55;1.80;;;;;;;8.59;100.00;98246.97;4972691;28;20053;-51
2023/03/10 03:47:09;;;;;;;6.65;1.80;;;;;;;8.60;100.00;98251.25;4977013;28;20057;-52
2023/03/10 03:49:37;;;;;;;6.85;1.85;;;;;;;8.56;100.00;98252.66;4972652;28;20049;-53
2023/03/10 03:52:06;;;;;;;8.90;1.95;;;;;;;8.55;100.00;98250.22;4977101;28;20051;-51
2023/03/10 03:54:34;;;;;;;8.40;2.00;;;;;;;8.67;100.00;98256.53;4972159;28;20241;-51
2023/03/10 03:57:00;;;;;;;4.72;1.92;;;;;;;8.62;100.00;98251.88;4973271;28;20054;-51
2023/03/10 03:59:27;;;;;;;6.88;2.00;;;;;;;8.70;100.00;98252.69;4976772;28;20074;-52
2023/03/10 04:01:55;;;;;;;6.68;1.75;;;;;;;8.62;100.00;98245.75;4971949;28;20051;-52
2023/03/10 04:04:23;;;;;;;6.65;1.80;;;;;;;8.68;100.00;98241.47;4976532;28;20047;-52
2023/03/10 04:06:50;;;;;;;9.73;2.10;;;;;;;8.68;100.00;98233.56;4972560;28;20059;-50
2023/03/10 04:09:17;;;;;;;7.75;2.00;;;;;;;8.64;100.00;98226.03;4976475;28;20078;-52
2023/03/10 04:11:43;;;;;;;9.27;2.00;;;;;;;8.60;100.00;98231.94;4972400;28;20385;-52
2023/03/10 04:14:10;;;;;;;11.85;2.20;;;;;;;8.58;100.00;98228.69;4974080;28;20045;-53
2023/03/10 04:16:37;;;;;;;10.13;2.08;;;;;;;8.54;100.00;98230.09;4976610;28;20058;-51
2023/03/10 04:19:06;;;;;;;10.25;2.10;;;;;;;8.57;100.00;98229.72;4972111;28;20043;-52
2023/03/10 04:21:35;;;;;;;7.85;2.03;;;;;;;8.59;100.00;98227.69;4976649;28;20051;-49
2023/03/10 04:24:03;;;;;;;12.30;2.17;;;;;;;8.61;100.00;98223.00;4972151;28;20105;-49
2023/03/10 04:26:31;;;;;;;10.45;1.98;;;;;;;8.60;100.00;98216.91;4975955;28;20062;-50
2023/03/10 04:28:58;;;;;;;6.65;1.85;;;;;;;8.58;100.00;98216.28;4968236;28;20070;-52
2023/03/10 04:31:27;;;;;;;7.95;2.00;;;;;;;8.64;100.00;98217.28;4976622;28;20058;-49
2023/03/10 04:33:56;;;;;;;7.60;1.98;;;;;;;8.63;100.00;98226.25;4971866;28;20811;-52
2023/03/10 04:36:22;;;;;;;9.68;2.42;;;;;;;8.71;100.00;98219.94;4973288;28;20050;-51
2023/03/10 04:38:53;;;;;;;9.93;1.73;;;;;;;8.70;100.00;98218.31;4970535;28;20547;-51
2023/03/10 04:41:23;;;;;;;7.43;2.00;;;;;;;8.81;100.00;98223.81;4975409;28;20433;-53
2023/03/10 04:43:50;;;;;;;10.57;2.13;;;;;;;8.80;100.00;98224.00;4968335;28;20055;-50
2023/03/10 04:46:17;;;;;;;12.85;3.10;;;;;;;8.72;100.00;98213.66;4975975;28;20077;-52
2023/03/10 04:48:45;;;;;;;16.45;2.17;;;;;;;8.71;100.00;98209.38;4975856;28;20047;-53
2023/03/10 04:51:12;;;;;;;11.85;2.05;;;;;;;8.69;100.00;98214.84;4971694;28;20061;-50
2023/03/10 04:53:45;;;;;;;7.15;1.73;;;;;;;8.64;100.00;98212.00;4976071;28;20077;-50
2023/03/10 04:56:13;;;;;;;13.05;2.08;;;;;;;8.62;100.00;98206.09;4970862;28;20050;-51
2023/03/10 04:58:41;;;;;;;11.77;2.13;;;;;;;8.68;100.00;98207.94;4975536;28;20047;-50
2023/03/10 05:01:10;;;;;;;8.82;1.80;;;;;;;8.66;100.00;98207.34;4967479;28;20404;-53
2023/03/10 05:03:41;;;;;;;12.52;2.53;;;;;;;8.68;100.00;98212.41;4975948;28;20051;-50
2023/03/10 05:06:12;;;;;;;11.85;2.20;;;;;;;8.69;100.00;98212.22;4973459;28;20063;-51
2023/03/10 05:08:40;;;;;;;18.30;3.17;;;;;;;8.65;100.00;98200.41;4974865;28;20556;-53
2023/03/10 05:11:07;;;;;;;10.45;2.55;;;;;;;8.68;100.00;98201.84;4954196;28;20136;-52
2023/03/10 05:13:34;;;;;;;13.90;2.80;;;;;;;8.59;100.00;98199.41;4956285;28;20134;-52
2023/03/10 05:16:02;;;;;;;16.70;3.25;;;;;;;8.57;100.00;98192.72;4974151;28;20057;-51
2023/03/10 05:18:30;;;;;;;14.70;3.28;;;;;;;8.53;100.00;98188.81;4969067;28;20405;-53
2023/03/10 05:20:57;;;;;;;14.10;2.97;;;;;;;8.55;100.00;98192.06;4975021;28;20115;-50
2023/03/10 05:23:24;;;;;;;12.20;2.60;;;;;;;8.59;100.00;98191.47;4971089;28;20084;-53
2023/03/10 05:25:51;;;;;;;15.02;2.60;;;;;;;8.57;100.00;98193.53;4975037;28;20100;-51
2023/03/10 05:28:20;;;;;;;12.95;2.45;;;;;;;8.63;100.00;98194.53;4970780;28;20050;-53
2023/03/10 05:30:46;;;;;;;13.80;3.58;;;;;;;8.65;100.00;98188.00;4975136;28;20135;-51
2023/03/10 05:33:13;;;;;;;20.48;2.70;;;;;;;8.73;100.00;98202.03;4971034;28;20058;-53
2023/03/10 05:35:40;;;;;;;17.73;2.95;;;;;;;8.72;100.00;98195.94;4971830;28;20046;-53
2023/03/10 05:38:07;;;;;;;13.93;2.55;;;;;;;8.64;100.00;98196.97;4974562;28;20517;-53
2023/03/10 05:40:33;;;;;;;14.93;2.42;;;;;;;8.75;100.00;98203.47;4970869;28;20046;-53
2023/03/10 05:43:00;;;;;;;13.57;2.70;;;;;;;8.80;100.00;98195.75;4974601;28;20114;-50
2023/03/10 05:45:28;;;;;;;14.88;2.72;;;;;;;8.76;100.00;98197.16;4970615;28;20242;-53
2023/03/10 05:47:54;;;;;;;14.80;2.72;;;;;;;8.74;100.00;98187.81;4955599;28;20043;-52
2023/03/10 05:50:21;;;;;;;15.80;2.30;;;;;;;8.66;100.00;98191.50;4947836;28;20047;-53
2023/03/10 05:52:48;;;;;;;15.02;2.83;;;;;;;8.63;100.00;98187.41;4955351;28;20473;-52
2023/03/10 05:55:18;;;;;;;16.98;2.72;;;;;;;8.64;100.00;98189.06;4962566;28;20043;-53
2023/03/10 05:57:46;;;;;;;19.05;3.25;;;;;;;8.59;100.00;98186.19;4974569;28;20050;-51
2023/03/10 06:00:14;;;;;;;16.30;2.60;;;;;;;8.62;100.00;98190.25;4971111;28;20072;-53
2023/03/10 06:02:45;;;;;;;10.77;2.55;;;;;;;8.64;100.00;98194.34;4974094;28;20473;-53
2023/03/10 06:05:12;;;;;;;16.83;2.90;;;;;;;8.65;100.00;98200.41;4971667;28;20051;-51
2023/03/10 06:07:40;;;;;;;16.15;3.10;;;;;;;8.66;100.00;98191.50;4970199;28;20047;-50
2023/03/10 06:10:08;;;;;;;16.67;2.60;;;;;;;8.65;100.00;98193.28;4974372;28;20046;-51
2023/03/10 06:12:35;;;;;;;20.20;2.90;;;;;;;8.65;100.00;98184.56;4970534;28;20538;-56
2023/03/10 06:15:02;;;;;;;18.02;2.97;;;;;;;8.65;100.00;98193.28;4974524;28;20057;-56
2023/03/10 06:17:28;;;;;;;13.43;2.67;;;;;;;8.69;100.00;98191.06;4970527;28;20050;-53
2023/03/10 06:19:55;;;;;;;20.90;2.83;;;;;;;8.64;100.00;98182.94;4989175;28;20051;-53
2023/03/10 06:22:22;;;;;;;15.55;2.28;;;;;;;8.70;100.00;98189.25;4966553;28;20117;-53
2023/03/10 06:24:48;;;;;;;19.25;3.25;;;;;;;8.70;100.00;98186.63;4974081;28;20519;-53
2023/03/10 06:27:15;;;;;;;18.42;3.75;;;;;;;8.68;100.00;98191.25;4970781;28;20405;-53
2023/03/10 06:29:42;;;;;;;20.00;3.53;;;;;;;8.72;100.00;98189.84;4973629;28;20050;-51
2023/03/10 06:32:08;;;;;;;13.60;3.72;;;;;;;8.74;100.00;98196.56;4972199;28;20083;-53
2023/03/10 06:34:35;;;;;;;16.60;4.10;;;;;;;8.86;100.00;98193.28;4972502;28;20046;-53
2023/03/10 06:37:02;;;;;;;13.73;3.42;;;;;;;8.81;100.00;98202.66;4966261;28;20085;-51
2023/03/10 06:39:28;;;;;;;17.67;3.88;;;;;;;8.72;100.00;98203.88;4968869;28;20383;-50
2023/03/10 06:41:55;;;;;;;18.92;3.55;;;;;;;8.75;100.00;98206.13;4974370;28;20055;-53
2023/03/10 06:44:22;;;;;;;17.98;3.08;;;;;;;8.64;100.00;98204.06;4969422;28;20552;-52
2023/03/10 06:46:48;;;;;;;13.82;3.40;;;;;;;8.72;100.00;98211.81;4973713;28;20124;-53
2023/03/10 06:49:15;;;;;;;16.95;3.50;;;;;;;8.76;100.00;98207.72;4970157;28;20050;-50
2023/03/10 06:51:42;;;;;;;10.98;2.75;;;;;;;8.74;100.00;98207.13;4988307;28;20051;-51
2023/03/10 06:54:08;;;;;;;17.15;3.15;;;;;;;8.70;100.00;98205.91;4969410;28;20066;-52
2023/03/10 06:56:35;;;;;;;17.92;3.08;;;;;;;8.70;100.00;98203.28;4969716;28;20101;-51
2023/03/10 06:59:03;;;;;;;16.50;3.30;;;;;;;8.78;100.00;98210.19;4974079;28;20050;-53
2023/03/10 07:01:31;;;;;;;15.27;2.78;;;;;;;8.69;100.00;98211.41;4968959;28;20133;-52
2023/03/10 07:04:00;;;;;;;12.50;3.00;;;;;;;8.79;100.00;98217.09;4974087;28;20054;-51
2023/03/10 07:06:27;;;;;;;15.55;2.67;;;;;;;8.75;100.00;98214.06;4966586;28;20117;-53
2023/03/10 07:08:53;;;;;;;15.13;3.25;;;;;;;8.79;100.00;98217.09;4990697;28;20066;-51
2023/03/10 07:11:21;;;;;;;16.83;3.28;;;;;;;8.67;100.00;98216.09;4973147;28;20453;-49
2023/03/10 07:13:48;;;;;;;14.88;2.97;;;;;;;8.65;100.00;98219.72;4974288;28;20046;-52
2023/03/10 07:16:15;;;;;;;14.45;2.63;;;;;;;8.75;100.00;98218.50;4977415;28;20412;-52
2023/03/10 07:18:42;;;;;;;12.90;3.00;;;;;;;8.83;100.00;98223.59;4973067;28;20043;-52
2023/03/10 07:21:11;;;;;;;13.85;3.45;;;;;;;8.87;100.00;98222.16;4977423;28;20547;-52
2023/03/10 07:23:38;;;;;;;16.30;3.90;;;;;;;8.81;100.00;98223.81;4973150;28;20735;-53
2023/03/10 07:26:07;;;;;;;19.77;3.08;;;;;;;8.80;100.00;98229.28;4976945;28;20493;-51
2023/03/10 07:28:36;;;;;;;16.60;4.00;;;;;;;8.78;100.00;98221.56;4973078;28;20683;-52
2023/03/10 07:31:05;;;;;;;14.10;3.17;;;;;;;8.83;100.00;98220.97;4973989;28;20046;-52
2023/03/10 07:33:32;;;;;;;18.77;3.58;;;;;;;8.91;100.00;98231.31;4980019;28;20046;-53
2023/03/10 07:36:04;;;;;;;19.95;5.20;;;;;;;8.99;100.00;98228.47;4967422;28;20058;-52
2023/03/10 07:38:31;;;;;;;;;;;;;;;9.12;100.00;98227.63;4981699;28;20039;-53
2023/03/10 07:40:57;;;;;;;19.90;5.30;;;;;;;9.14;100.00;98225.59;4972101;28;19929;-53
2023/03/10 07:43:26;;;;;;;14.77;5.25;;;;;;;9.19;100.00;98235.56;4976751;28;20397;-52
2023/03/10 07:45:53;;;;;;;19.70;5.18;;;;;;;9.18;100.00;98236.59;4969536;28;20070;-52
2023/03/10 07:48:19;;;;;;;22.35;4.80;;;;;;;9.09;100.00;98235.97;4985994;28;20150;-52
2023/03/10 07:50:54;;;;;;;21.38;3.47;;;;;;;9.15;100.00;98229.03;4986399;28;20551;-52
2023/03/10 07:53:21;;;;;;;13.07;3.45;;;;;;;9.23;100.00;98223.56;4987711;28;20051;-53
2023/03/10 07:55:48;;;;;;;16.90;3.55;;;;;;;9.19;100.00;98228.44;4974998;28;20093;-53
2023/03/10 07:58:14;;;;;;;18.92;4.20;;;;;;;9.15;100.00;98236.97;4976034;28;20484;-55
2023/03/10 08:00:43;;;;;;;15.30;3.30;;;;;;;9.16;100.00;98244.72;4983698;28;20058;-53
2023/03/10 08:03:10;;;;;;;17.23;3.00;;;;;;;9.17;100.00;98245.56;4992098;28;20043;-52
2023/03/10 08:05:41;;;;;;;18.45;3.53;;;;;;;9.21;100.00;98239.63;4992982;28;20092;-54
2023/03/10 08:08:07;;;;;;;11.65;3.22;;;;;;;9.26;100.00;98244.31;4989487;28;20039;-54
2023/03/10 08:10:34;;;;;;;17.85;3.50;;;;;;;9.37;100.00;98246.31;4986393;28;20566;-54
2023/03/10 08:13:01;;;;;;;20.58;3.20;;;;;;;9.46;100.00;98240.78;4991682;28;20046;-52
2023/03/10 08:15:28;;;;;;;20.27;3.97;;;;;;;9.52;100.00;98245.28;4993095;28;20050;-54
2023/03/10 08:17:55;;;;;;;18.75;4.18;;;;;;;9.46;100.00;98238.97;4981289;28;20047;-55
2023/03/10 08:20:22;;;;;;;23.27;3.67;;;;;;;9.42;100.00;98253.63;4987600;28;20447;-54
2023/03/10 08:22:48;;;;;;;23.15;3.50;;;;;;;9.48;100.00;98246.69;4987939;28;20072;-55
2023/03/10 08:25:15;;;;;;;12.68;2.80;;;;;;;9.64;100.00;98248.91;4995305;28;20054;-54
2023/03/10 08:27:42;;;;;;;19.02;2.80;;;;;;;9.71;100.00;98259.44;4989417;28;20043;-53
2023/03/10 08:30:09;;;;;;;17.17;2.95;;;;;;;9.64;100.00;98250.72;4982270;28;20085;-54
2023/03/10 08:32:36;;;;;;;11.48;2.33;;;;;;;9.72;100.00;98258.44;4975732;28;20069;-54
2023/03/10 08:35:04;;;;;;;21.23;3.63;;;;;;;9.68;100.00;98257.22;4961971;28;20384;-53
2023/03/10 08:37:31;;;;;;;15.68;3.00;;;;;;;9.74;100.00;98256.41;4976618;28;20377;-52
2023/03/10 08:39:58;;;;;;;15.00;2.88;;;;;;;9.67;100.00;98252.97;4968571;28;20051;-53
2023/03/10 08:42:26;;;;;;;25.52;2.90;;;;;;;9.82;100.00;98253.50;4983317;28;20053;-50
2023/03/10 08:44:55;;;;;;;16.38;3.03;;;;;;;9.77;100.00;98254.16;4983067;28;20259;-49
2023/03/10 08:47:22;;;;;;;20.95;3.30;;;;;;;9.98;100.00;98257.50;4975497;28;20050;-50
2023/03/10 08:49:49;;;;;;;17.63;3.45;;;;;;;9.96;100.00;98252.41;4966717;28;20043;-50
2023/03/10 08:52:16;;;;;;;17.95;3.08;;;;;;;10.10;100.00;98261.13;4974065;28;20074;-49
2023/03/10 08:54:43;;;;;;;23.45;5.57;;;;;;;10.14;100.00;98249.06;4970944;28;20047;-49
2023/03/10 08:57:09;;;;;;;18.80;2.83;;;;;;;10.23;100.00;98252.31;4974891;28;20053;-50
2023/03/10 08:59:36;;;;;;;13.88;3.53;;;;;;;10.36;100.00;98254.91;4974298;28;20039;-49
2023/03/10 09:02:03;;;;;;;10.48;2.65;;;;;;;10.44;100.00;98243.25;4973836;28;20050;-48
2023/03/10 09:04:30;;;;;;;17.75;2.60;;;;;;;10.58;100.00;98249.25;4993630;28;20040;-49
2023/03/10 09:06:57;;;;;;;19.55;2.80;;;;;;;10.72;100.00;98256.09;4977402;28;20054;-49
2023/03/10 09:09:23;;;;;;;19.00;2.63;;;;;;;10.69;100.00;98253.06;4968622;28;20080;-50
2023/03/10 09:11:50;;;;;;;14.27;2.70;;;;;;;10.76;100.00;98254.63;4962900;28;20085;-51
2023/03/10 09:14:17;;;;;;;19.13;2.83;;;;;;;10.86;100.00;98264.75;4970804;28;20046;-51
2023/03/10 09:16:44;;;;;;;14.68;3.30;;;;;;;10.83;96.79;98259.09;4971446;28;20109;-51
2023/03/10 09:19:11;;;;;;;18.38;2.85;;;;;;;10.89;97.84;98259.00;4974186;28;20485;-50
2023/03/10 09:21:38;;;;;;;19.05;3.13;;;;;;;11.00;96.56;98257.50;4973378;28;20043;-51
2023/03/10 09:24:05;;;;;;;15.75;2.78;;;;;;;11.10;97.14;98257.03;4975294;28;20077;-53
2023/03/10 09:26:33;;;;;;;22.15;2.92;;;;;;;11.10;99.69;98257.03;4953316;28;20093;-51
2023/03/10 09:29:01;;;;;;;17.35;2.90;;;;;;;11.07;94.45;98257.44;4982296;28;20046;-52
2023/03/10 09:31:31;;;;;;;27.55;3.05;;;;;;;11.07;93.13;98260.09;4956332;28;20054;-51
2023/03/10 09:33:58;;;;;;;17.85;3.03;;;;;;;11.08;94.29;98267.03;4974875;28;20046;-51
2023/03/10 09:36:25;;;;;;;19.67;2.97;;;;;;;11.00;92.75;98267.31;4966210;28;20113;-51
2023/03/10 09:38:52;;;;;;;21.77;2.85;;;;;;;11.09;93.06;98266.00;4975854;28;20046;-51
2023/03/10 09:41:47;;;;;;;25.35;2.78;;;;;;;11.05;94.47;98260.31;4957483;28;20046;-53
2023/03/10 09:44:54;;;;;;;17.85;3.65;;;;;;;11.36;92.15;98266.56;4979478;28;20101;-52
2023/03/10 09:47:26;;;;;;;21.33;2.72;;;;;;;12.64;86.30;98271.97;4976629;28;20051;-48
2023/03/10 09:55:33;;;;;;;19.60;2.90;;;;;;;12.23;82.49;98268.25;5063768;27;20390;-51
2023/03/10 09:58:00;;;;;;;17.33;2.83;;;;;;;12.11;83.57;98273.50;5089663;28;20519;-51
2023/03/10 10:00:36;;;;;;;15.98;2.65;;;;;;;12.08;83.67;98271.31;5087706;28;20805;-51
2023/03/10 10:03:11;;;;;;;15.15;2.67;;;;;;;12.35;81.18;98265.63;5093703;28;20531;-49
2023/03/10 10:05:41;;;;;;;18.52;2.30;;;;;;;12.59;78.53;98270.00;5088014;28;20072;-49
2023/03/10 10:08:28;;;;;;;13.82;2.50;;;;;;;12.54;82.37;98269.88;5109618;28;20044;-50
2023/03/10 10:10:58;;;;;;;22.95;3.00;;;;;;;12.91;78.64;98268.91;5080242;28;20113;-49
2023/03/10 10:13:29;;;;;;;17.65;3.75;;;;;;;12.86;79.33;98272.25;5089316;28;20071;-51
2023/03/10 10:16:06;;;;;;;14.65;2.58;;;;;;;13.07;76.67;98277.00;5085221;28;20044;-50
2023/03/10 10:19:01;;;;;;;14.43;2.67;;;;;;;12.79;75.63;98266.25;5092714;28;20460;-49
2023/03/10 10:21:41;;;;;;;14.50;2.65;;;;;;;13.53;74.11;98266.63;5087625;28;20048;-48
2023/03/10 10:24:09;;;;;;;11.10;2.47;;;;;;;13.30;76.42;98264.78;5095504;28;20093;-50
2023/03/10 10:26:35;;;;;;;15.70;2.42;;;;;;;12.67;76.95;98259.03;5083188;28;20044;-52
2023/03/10 10:32:12;;;;;;;11.73;2.25;;;;;;;11.93;78.98;98266.38;5065023;28;20729;-52
2023/03/10 10:34:42;;;;;;;18.05;3.00;;;;;;;11.74;80.01;98272.72;5060593;28;20115;-53
2023/03/10 10:37:30;;;;;;;18.48;3.08;;;;;;;11.59;81.19;98276.53;5050012;28;20486;-53
2023/03/10 10:39:59;;;;;;;21.80;2.80;;;;;;;11.61;80.69;98274.47;5045836;28;20859;-52
2023/03/10 10:42:29;;;;;;;23.73;3.13;;;;;;;11.61;82.39;98271.81;5063189;28;20067;-52
2023/03/10 10:44:59;;;;;;;13.10;2.30;;;;;;;11.57;84.79;98275.13;5060413;28;20055;-51
2023/03/10 10:47:29;;;;;;;12.35;2.15;;;;;;;11.55;83.23;98270.06;5055227;28;20038;-53
2023/03/10 10:50:25;;;;;;;16.60;2.42;;;;;;;11.58;81.09;98264.28;5056853;28;20045;-53
2023/03/10 10:53:14;;;;;;;15.73;2.25;;;;;;;11.77;81.94;98267.78;5061604;28;20135;-51
2023/03/10 10:55:44;;;;;;;17.15;2.40;;;;;;;11.76;81.45;98265.34;5060464;28;20128;-52
2023/03/10 10:58:34;;;;;;;16.00;2.55;;;;;;;11.77;82.41;98265.13;5066657;28;20045;-51
2023/03/10 11:01:05;;;;;;;12.02;2.10;;;;;;;11.81;79.98;98268.16;5062752;28;20135;-50
2023/03/10 11:03:35;;;;;;;;;;;;;;;11.71;79.20;98273.94;5068947;28;20098;-51
2023/03/10 11:06:28;;;;;;;7.90;1.67;;;;;;;11.48;78.61;98266.66;5064857;28;19974;-50
2023/03/10 11:09:05;;;;;;;8.75;1.70;;;;;;;11.20;79.88;98272.44;5058569;28;20040;-49
2023/03/10 11:11:43;;;;;;;8.30;1.67;;;;;;;10.99;82.41;98271.81;5053043;28;20048;-49
2023/03/10 11:14:38;;;;;;;6.10;1.80;;;;;;;10.85;83.26;98275.59;5027273;28;20045;-49
2023/03/10 11:17:35;;;;;;;8.55;1.55;;;;;;;10.86;85.24;98270.06;5044487;28;20042;-49
2023/03/10 11:20:26;;;;;;;9.77;1.83;;;;;;;10.77;87.77;98271.38;5052380;28;20123;-50
2023/03/10 11:23:07;;;;;;;5.72;2.08;;;;;;;10.70;89.57;98267.94;5056272;28;20044;-50
2023/03/10 11:25:58;;;;;;;9.43;2.30;;;;;;;10.59;94.74;98269.44;5035635;28;20068;-50
2023/03/10 11:28:48;;;;;;;10.25;2.00;;;;;;;10.41;94.41;98277.31;5038494;28;20049;-52
2023/03/10 11:31:35;;;;;;;11.52;2.03;;;;;;;10.34;94.57;98286.09;5038918;28;20045;-51
2023/03/10 11:37:12;;;;;;;9.40;2.30;;;;;;;10.10;98.59;98284.16;5089586;27;21858;-50
2023/03/10 11:40:13;;;;;;;8.80;2.13;;;;;;;9.98;100.00;98284.00;5088494;28;20048;-52
2023/03/10 11:45:31;;;;;;;10.23;2.42;;;;;;;9.82;100.00;98272.03;5066142;28;20127;-50
2023/03/10 11:48:20;;;;;;;8.60;2.33;;;;;;;9.69;100.00;98280.84;5041981;28;20067;-51
2023/03/10 11:50:52;;;;;;;9.18;2.42;;;;;;;9.55;100.00;98272.13;5060566;28;20143;-49
2023/03/10 11:53:45;;;;;;;18.50;3.28;;;;;;;9.53;100.00;98263.59;5038154;28;20037;-50
2023/03/10 11:56:15;;;;;;;11.15;2.90;;;;;;;9.47;100.00;98263.59;5036089;28;20067;-51